sensor_id;sensor_type;location;lat;lon;timestamp;P1;durP1;ratioP1;P2;durP2;ratioP2
43998;SDS011;51319;52.162;5.302;2022-09-13T00:00:20;9.23;;;4.53;;
43998;SDS011;51319;52.162;5.302;2022-09-13T00:02:46;5.63;;;4.32;;
43998;SDS011;51319;52.162;5.302;2022-09-13T00:05:13;6.30;;;3.88;;
43998;SDS011;51319;52.162;5.302;2022-09-13T00:07:39;5.20;;;4.40;;
43998;SDS011;51319;52.162;5.302;2022-09-13T00:10:05;4.88;;;4.07;;
43998;SDS011;51319;52.162;5.302;2022-09-13T00:12:32;9.23;;;4.25;;
43998;SDS011;51319;52.162;5.302;2022-09-13T00:14:58;5.47;;;4.18;;
43998;SDS011;51319;52.162;5.302;2022-09-13T00:17:24;6.28;;;4.75;;
43998;SDS011;51319;52.162;5.302;2022-09-13T00:19:51;6.93;;;4.85;;
43998;SDS011;51319;52.162;5.302;2022-09-13T00:22:17;7.57;;;4.47;;
43998;SDS011;51319;52.162;5.302;2022-09-13T00:24:43;10.30;;;5.07;;
43998;SDS011;51319;52.162;5.302;2022-09-13T00:27:10;8.48;;;4.50;;
43998;SDS011;51319;52.162;5.302;2022-09-13T00:29:37;8.38;;;4.90;;
43998;SDS011;51319;52.162;5.302;2022-09-13T00:32:03;5.55;;;4.53;;
43998;SDS011;51319;52.162;5.302;2022-09-13T00:34:31;9.38;;;4.50;;
43998;SDS011;51319;52.162;5.302;2022-09-13T00:36:58;4.93;;;4.53;;
43998;SDS011;51319;52.162;5.302;2022-09-13T00:39:24;7.70;;;4.65;;
43998;SDS011;51319;52.162;5.302;2022-09-13T00:41:50;8.77;;;4.65;;
43998;SDS011;51319;52.162;5.302;2022-09-13T00:47:22;5.47;;;4.45;;
43998;SDS011;51319;52.162;5.302;2022-09-13T00:49:50;5.60;;;4.25;;
43998;SDS011;51319;52.162;5.302;2022-09-13T00:52:20;8.20;;;5.10;;
43998;SDS011;51319;52.162;5.302;2022-09-13T00:54:49;6.68;;;5.35;;
43998;SDS011;51319;52.162;5.302;2022-09-13T00:57:20;6.63;;;4.97;;
43998;SDS011;51319;52.162;5.302;2022-09-13T01:00:00;7.28;;;4.95;;
43998;SDS011;51319;52.162;5.302;2022-09-13T01:02:37;8.25;;;4.68;;
43998;SDS011;51319;52.162;5.302;2022-09-13T01:05:06;12.65;;;5.13;;
43998;SDS011;51319;52.162;5.302;2022-09-13T01:07:33;8.30;;;5.07;;
43998;SDS011;51319;52.162;5.302;2022-09-13T01:10:01;7.55;;;5.05;;
43998;SDS011;51319;52.162;5.302;2022-09-13T01:12:32;7.00;;;4.95;;
43998;SDS011;51319;52.162;5.302;2022-09-13T01:15:09;8.55;;;4.95;;
43998;SDS011;51319;52.162;5.302;2022-09-13T01:17:35;8.90;;;5.10;;
43998;SDS011;51319;52.162;5.302;2022-09-13T01:20:04;8.75;;;5.47;;
43998;SDS011;51319;52.162;5.302;2022-09-13T01:34:06;6.97;;;5.95;;
43998;SDS011;51319;52.162;5.302;2022-09-13T01:40:00;15.85;;;6.68;;
43998;SDS011;51319;52.162;5.302;2022-09-13T01:47:56;7.63;;;6.13;;
43998;SDS011;51319;52.162;5.302;2022-09-13T01:50:40;7.03;;;5.30;;
43998;SDS011;51319;52.162;5.302;2022-09-13T01:56:09;12.63;;;5.65;;
43998;SDS011;51319;52.162;5.302;2022-09-13T01:58:50;6.60;;;5.30;;
43998;SDS011;51319;52.162;5.302;2022-09-13T02:01:27;5.63;;;5.07;;
43998;SDS011;51319;52.162;5.302;2022-09-13T02:04:01;10.38;;;5.43;;
43998;SDS011;51319;52.162;5.302;2022-09-13T02:07:02;7.43;;;4.97;;
43998;SDS011;51319;52.162;5.302;2022-09-13T02:09:35;6.45;;;5.07;;
43998;SDS011;51319;52.162;5.302;2022-09-13T02:12:15;6.93;;;5.43;;
43998;SDS011;51319;52.162;5.302;2022-09-13T02:14:47;7.32;;;5.60;;
43998;SDS011;51319;52.162;5.302;2022-09-13T02:17:21;8.77;;;6.07;;
43998;SDS011;51319;52.162;5.302;2022-09-13T02:19:52;7.57;;;5.68;;
43998;SDS011;51319;52.162;5.302;2022-09-13T02:22:25;7.10;;;5.35;;
43998;SDS011;51319;52.162;5.302;2022-09-13T02:25:03;12.73;;;6.07;;
43998;SDS011;51319;52.162;5.302;2022-09-13T02:27:33;6.18;;;5.43;;
43998;SDS011;51319;52.162;5.302;2022-09-13T02:30:02;10.23;;;5.75;;
43998;SDS011;51319;52.162;5.302;2022-09-13T02:32:33;15.50;;;6.47;;
43998;SDS011;51319;52.162;5.302;2022-09-13T02:37:48;8.05;;;6.20;;
43998;SDS011;51319;52.162;5.302;2022-09-13T02:40:22;9.90;;;6.57;;
43998;SDS011;51319;52.162;5.302;2022-09-13T02:42:58;8.95;;;6.47;;
43998;SDS011;51319;52.162;5.302;2022-09-13T02:45:35;10.13;;;6.28;;
43998;SDS011;51319;52.162;5.302;2022-09-13T02:48:17;7.03;;;5.85;;
43998;SDS011;51319;52.162;5.302;2022-09-13T02:51:17;9.80;;;6.73;;
43998;SDS011;51319;52.162;5.302;2022-09-13T02:59:18;6.93;;;5.78;;
43998;SDS011;51319;52.162;5.302;2022-09-13T03:01:55;9.30;;;6.10;;
43998;SDS011;51319;52.162;5.302;2022-09-13T03:04:30;9.80;;;5.93;;
43998;SDS011;51319;52.162;5.302;2022-09-13T03:06:58;7.53;;;6.10;;
43998;SDS011;51319;52.162;5.302;2022-09-13T03:09:24;8.07;;;5.80;;
43998;SDS011;51319;52.162;5.302;2022-09-13T03:25:08;8.02;;;6.22;;
43998;SDS011;51319;52.162;5.302;2022-09-13T03:27:51;10.75;;;5.90;;
43998;SDS011;51319;52.162;5.302;2022-09-13T03:30:26;8.15;;;5.95;;
43998;SDS011;51319;52.162;5.302;2022-09-13T03:35:34;10.85;;;5.93;;
43998;SDS011;51319;52.162;5.302;2022-09-13T03:38:27;6.93;;;5.75;;
43998;SDS011;51319;52.162;5.302;2022-09-13T03:44:02;9.32;;;6.25;;
43998;SDS011;51319;52.162;5.302;2022-09-13T03:46:33;7.93;;;6.75;;
43998;SDS011;51319;52.162;5.302;2022-09-13T03:49:06;9.07;;;7.57;;
43998;SDS011;51319;52.162;5.302;2022-09-13T03:51:36;9.27;;;7.03;;
43998;SDS011;51319;52.162;5.302;2022-09-13T03:54:05;10.32;;;6.85;;
43998;SDS011;51319;52.162;5.302;2022-09-13T03:59:01;11.45;;;7.28;;
43998;SDS011;51319;52.162;5.302;2022-09-13T04:01:28;10.40;;;7.40;;
43998;SDS011;51319;52.162;5.302;2022-09-13T04:03:54;11.73;;;7.00;;
43998;SDS011;51319;52.162;5.302;2022-09-13T04:06:22;15.88;;;7.28;;
43998;SDS011;51319;52.162;5.302;2022-09-13T04:08:48;10.43;;;6.90;;
43998;SDS011;51319;52.162;5.302;2022-09-13T04:11:15;9.05;;;7.22;;
43998;SDS011;51319;52.162;5.302;2022-09-13T04:13:42;10.07;;;7.85;;
43998;SDS011;51319;52.162;5.302;2022-09-13T04:16:08;11.40;;;7.43;;
43998;SDS011;51319;52.162;5.302;2022-09-13T04:18:34;13.02;;;7.75;;
43998;SDS011;51319;52.162;5.302;2022-09-13T04:21:01;10.55;;;7.55;;
43998;SDS011;51319;52.162;5.302;2022-09-13T04:23:28;9.73;;;8.10;;
43998;SDS011;51319;52.162;5.302;2022-09-13T04:25:59;14.73;;;8.30;;
43998;SDS011;51319;52.162;5.302;2022-09-13T04:28:26;11.07;;;8.68;;
43998;SDS011;51319;52.162;5.302;2022-09-13T04:30:52;12.65;;;8.95;;
43998;SDS011;51319;52.162;5.302;2022-09-13T04:33:19;13.07;;;9.05;;
43998;SDS011;51319;52.162;5.302;2022-09-13T04:35:45;10.85;;;8.07;;
43998;SDS011;51319;52.162;5.302;2022-09-13T04:38:11;9.88;;;7.22;;
43998;SDS011;51319;52.162;5.302;2022-09-13T04:40:38;10.98;;;8.32;;
43998;SDS011;51319;52.162;5.302;2022-09-13T04:43:05;7.97;;;6.97;;
43998;SDS011;51319;52.162;5.302;2022-09-13T04:45:31;11.15;;;7.35;;
43998;SDS011;51319;52.162;5.302;2022-09-13T04:47:57;10.73;;;8.90;;
43998;SDS011;51319;52.162;5.302;2022-09-13T04:50:24;9.55;;;7.85;;
43998;SDS011;51319;52.162;5.302;2022-09-13T04:52:53;13.02;;;8.43;;
43998;SDS011;51319;52.162;5.302;2022-09-13T04:55:19;13.88;;;7.50;;
43998;SDS011;51319;52.162;5.302;2022-09-13T04:57:46;11.43;;;7.25;;
43998;SDS011;51319;52.162;5.302;2022-09-13T05:00:12;11.68;;;8.50;;
43998;SDS011;51319;52.162;5.302;2022-09-13T05:02:38;15.75;;;9.27;;
43998;SDS011;51319;52.162;5.302;2022-09-13T05:05:04;12.60;;;8.77;;
43998;SDS011;51319;52.162;5.302;2022-09-13T05:07:31;14.35;;;10.02;;
43998;SDS011;51319;52.162;5.302;2022-09-13T05:09:57;11.77;;;8.85;;
43998;SDS011;51319;52.162;5.302;2022-09-13T05:12:23;11.82;;;9.10;;
43998;SDS011;51319;52.162;5.302;2022-09-13T05:14:49;11.07;;;8.73;;
43998;SDS011;51319;52.162;5.302;2022-09-13T05:17:15;15.10;;;9.32;;
43998;SDS011;51319;52.162;5.302;2022-09-13T05:19:41;13.15;;;10.02;;
43998;SDS011;51319;52.162;5.302;2022-09-13T05:22:07;12.23;;;9.98;;
43998;SDS011;51319;52.162;5.302;2022-09-13T05:24:34;18.05;;;10.43;;
43998;SDS011;51319;52.162;5.302;2022-09-13T05:27:00;15.57;;;10.73;;
43998;SDS011;51319;52.162;5.302;2022-09-13T05:29:26;16.13;;;11.05;;
43998;SDS011;51319;52.162;5.302;2022-09-13T05:31:52;12.93;;;10.38;;
43998;SDS011;51319;52.162;5.302;2022-09-13T05:34:18;14.20;;;9.95;;
43998;SDS011;51319;52.162;5.302;2022-09-13T05:36:45;13.02;;;9.48;;
43998;SDS011;51319;52.162;5.302;2022-09-13T05:39:18;14.30;;;9.52;;
43998;SDS011;51319;52.162;5.302;2022-09-13T05:42:06;15.32;;;10.70;;
43998;SDS011;51319;52.162;5.302;2022-09-13T05:44:33;14.77;;;10.18;;
43998;SDS011;51319;52.162;5.302;2022-09-13T05:46:59;16.60;;;11.75;;
43998;SDS011;51319;52.162;5.302;2022-09-13T05:49:26;12.95;;;10.27;;
43998;SDS011;51319;52.162;5.302;2022-09-13T05:51:52;17.58;;;10.38;;
43998;SDS011;51319;52.162;5.302;2022-09-13T05:54:18;14.75;;;11.40;;
43998;SDS011;51319;52.162;5.302;2022-09-13T05:56:44;16.77;;;11.20;;
43998;SDS011;51319;52.162;5.302;2022-09-13T05:59:11;13.18;;;10.27;;
43998;SDS011;51319;52.162;5.302;2022-09-13T06:01:38;18.55;;;12.40;;
43998;SDS011;51319;52.162;5.302;2022-09-13T06:04:05;20.08;;;12.55;;
43998;SDS011;51319;52.162;5.302;2022-09-13T06:06:31;19.25;;;13.27;;
43998;SDS011;51319;52.162;5.302;2022-09-13T06:08:59;17.65;;;13.73;;
43998;SDS011;51319;52.162;5.302;2022-09-13T06:11:25;22.45;;;14.52;;
43998;SDS011;51319;52.162;5.302;2022-09-13T06:13:52;22.38;;;15.07;;
43998;SDS011;51319;52.162;5.302;2022-09-13T06:16:18;23.25;;;16.13;;
43998;SDS011;51319;52.162;5.302;2022-09-13T06:18:45;28.65;;;16.55;;
43998;SDS011;51319;52.162;5.302;2022-09-13T06:21:13;29.42;;;14.98;;
43998;SDS011;51319;52.162;5.302;2022-09-13T06:23:52;23.02;;;14.52;;
43998;SDS011;51319;52.162;5.302;2022-09-13T06:26:20;24.25;;;16.10;;
43998;SDS011;51319;52.162;5.302;2022-09-13T06:28:48;24.17;;;16.73;;
43998;SDS011;51319;52.162;5.302;2022-09-13T06:31:17;30.40;;;15.73;;
43998;SDS011;51319;52.162;5.302;2022-09-13T06:33:45;23.85;;;17.83;;
43998;SDS011;51319;52.162;5.302;2022-09-13T06:36:13;26.30;;;16.83;;
43998;SDS011;51319;52.162;5.302;2022-09-13T06:38:42;27.83;;;15.75;;
43998;SDS011;51319;52.162;5.302;2022-09-13T06:41:11;22.55;;;17.17;;
43998;SDS011;51319;52.162;5.302;2022-09-13T06:43:43;41.00;;;26.25;;
43998;SDS011;51319;52.162;5.302;2022-09-13T06:46:14;30.23;;;20.88;;
43998;SDS011;51319;52.162;5.302;2022-09-13T06:48:45;32.38;;;21.15;;
43998;SDS011;51319;52.162;5.302;2022-09-13T06:51:14;28.80;;;21.02;;
43998;SDS011;51319;52.162;5.302;2022-09-13T06:53:42;30.13;;;19.88;;
43998;SDS011;51319;52.162;5.302;2022-09-13T06:56:12;31.42;;;20.13;;
43998;SDS011;51319;52.162;5.302;2022-09-13T06:58:40;32.30;;;20.95;;
43998;SDS011;51319;52.162;5.302;2022-09-13T07:03:44;36.92;;;22.63;;
43998;SDS011;51319;52.162;5.302;2022-09-13T07:06:13;32.63;;;22.13;;
43998;SDS011;51319;52.162;5.302;2022-09-13T07:08:47;35.30;;;23.50;;
43998;SDS011;51319;52.162;5.302;2022-09-13T07:11:14;37.53;;;23.25;;
43998;SDS011;51319;52.162;5.302;2022-09-13T07:13:46;37.20;;;23.02;;
43998;SDS011;51319;52.162;5.302;2022-09-13T07:16:18;33.70;;;22.67;;
43998;SDS011;51319;52.162;5.302;2022-09-13T07:18:57;28.50;;;21.40;;
43998;SDS011;51319;52.162;5.302;2022-09-13T07:21:30;33.15;;;21.75;;
43998;SDS011;51319;52.162;5.302;2022-09-13T07:23:58;35.90;;;20.35;;
43998;SDS011;51319;52.162;5.302;2022-09-13T07:26:25;28.38;;;20.33;;
43998;SDS011;51319;52.162;5.302;2022-09-13T07:28:55;28.17;;;19.27;;
43998;SDS011;51319;52.162;5.302;2022-09-13T07:31:27;25.25;;;16.77;;
43998;SDS011;51319;52.162;5.302;2022-09-13T07:34:02;27.02;;;17.27;;
43998;SDS011;51319;52.162;5.302;2022-09-13T07:36:30;20.73;;;16.15;;
43998;SDS011;51319;52.162;5.302;2022-09-13T07:38:58;19.52;;;14.23;;
43998;SDS011;51319;52.162;5.302;2022-09-13T07:41:25;20.48;;;15.70;;
43998;SDS011;51319;52.162;5.302;2022-09-13T07:43:52;18.15;;;12.90;;
43998;SDS011;51319;52.162;5.302;2022-09-13T07:46:20;14.73;;;10.85;;
43998;SDS011;51319;52.162;5.302;2022-09-13T07:48:48;16.67;;;10.55;;
43998;SDS011;51319;52.162;5.302;2022-09-13T07:51:18;14.45;;;11.43;;
43998;SDS011;51319;52.162;5.302;2022-09-13T07:53:46;16.27;;;11.77;;
43998;SDS011;51319;52.162;5.302;2022-09-13T07:56:20;16.33;;;11.43;;
43998;SDS011;51319;52.162;5.302;2022-09-13T07:58:48;14.07;;;10.80;;
43998;SDS011;51319;52.162;5.302;2022-09-13T08:01:20;16.20;;;9.90;;
43998;SDS011;51319;52.162;5.302;2022-09-13T08:03:52;16.92;;;9.13;;
43998;SDS011;51319;52.162;5.302;2022-09-13T08:06:23;13.40;;;7.88;;
43998;SDS011;51319;52.162;5.302;2022-09-13T08:08:52;13.13;;;7.30;;
43998;SDS011;51319;52.162;5.302;2022-09-13T08:11:21;15.63;;;7.45;;
43998;SDS011;51319;52.162;5.302;2022-09-13T08:13:49;8.30;;;6.43;;
43998;SDS011;51319;52.162;5.302;2022-09-13T08:16:17;13.75;;;8.32;;
43998;SDS011;51319;52.162;5.302;2022-09-13T08:18:49;8.30;;;6.47;;
43998;SDS011;51319;52.162;5.302;2022-09-13T08:21:17;10.60;;;6.05;;
43998;SDS011;51319;52.162;5.302;2022-09-13T08:23:44;13.27;;;5.97;;
43998;SDS011;51319;52.162;5.302;2022-09-13T08:26:10;8.00;;;4.93;;
43998;SDS011;51319;52.162;5.302;2022-09-13T08:28:37;4.93;;;3.67;;
43998;SDS011;51319;52.162;5.302;2022-09-13T08:31:08;5.18;;;3.53;;
43998;SDS011;51319;52.162;5.302;2022-09-13T08:33:36;4.35;;;2.72;;
43998;SDS011;51319;52.162;5.302;2022-09-13T08:36:03;4.57;;;2.50;;
43998;SDS011;51319;52.162;5.302;2022-09-13T08:38:30;3.22;;;2.08;;
43998;SDS011;51319;52.162;5.302;2022-09-13T08:40:58;6.22;;;2.03;;
43998;SDS011;51319;52.162;5.302;2022-09-13T08:43:46;4.75;;;1.50;;
43998;SDS011;51319;52.162;5.302;2022-09-13T08:46:34;4.72;;;1.25;;
43998;SDS011;51319;52.162;5.302;2022-09-13T08:49:23;2.63;;;1.00;;
43998;SDS011;51319;52.162;5.302;2022-09-13T08:52:13;5.47;;;1.35;;
43998;SDS011;51319;52.162;5.302;2022-09-13T08:54:44;4.47;;;1.00;;
43998;SDS011;51319;52.162;5.302;2022-09-13T08:57:13;7.30;;;1.30;;
43998;SDS011;51319;52.162;5.302;2022-09-13T08:59:49;3.40;;;1.05;;
43998;SDS011;51319;52.162;5.302;2022-09-13T09:05:28;4.18;;;0.90;;
43998;SDS011;51319;52.162;5.302;2022-09-13T09:07:58;1.83;;;0.85;;
43998;SDS011;51319;52.162;5.302;2022-09-13T09:10:40;3.05;;;1.00;;
43998;SDS011;51319;52.162;5.302;2022-09-13T09:18:56;7.43;;;1.67;;
43998;SDS011;51319;52.162;5.302;2022-09-13T09:21:29;2.38;;;0.70;;
43998;SDS011;51319;52.162;5.302;2022-09-13T09:23:56;2.75;;;0.73;;
43998;SDS011;51319;52.162;5.302;2022-09-13T09:26:24;5.28;;;1.02;;
43998;SDS011;51319;52.162;5.302;2022-09-13T09:28:54;8.63;;;0.93;;
43998;SDS011;51319;52.162;5.302;2022-09-13T09:37:38;3.55;;;0.95;;
43998;SDS011;51319;52.162;5.302;2022-09-13T09:40:08;2.05;;;0.80;;
43998;SDS011;51319;52.162;5.302;2022-09-13T09:42:42;3.55;;;0.90;;
43998;SDS011;51319;52.162;5.302;2022-09-13T09:45:25;4.50;;;0.80;;
43998;SDS011;51319;52.162;5.302;2022-09-13T09:47:54;8.75;;;1.88;;
43998;SDS011;51319;52.162;5.302;2022-09-13T09:50:25;4.38;;;1.13;;
43998;SDS011;51319;52.162;5.302;2022-09-13T09:55:28;3.00;;;0.80;;
43998;SDS011;51319;52.162;5.302;2022-09-13T09:58:13;3.90;;;1.13;;
43998;SDS011;51319;52.162;5.302;2022-09-13T10:00:56;5.40;;;0.65;;
43998;SDS011;51319;52.162;5.302;2022-09-13T10:03:24;4.90;;;0.90;;
43998;SDS011;51319;52.162;5.302;2022-09-13T10:08:33;3.92;;;0.98;;
43998;SDS011;51319;52.162;5.302;2022-09-13T10:11:02;9.68;;;1.13;;
43998;SDS011;51319;52.162;5.302;2022-09-13T10:13:32;3.55;;;1.80;;
43998;SDS011;51319;52.162;5.302;2022-09-13T10:16:02;3.63;;;1.10;;
43998;SDS011;51319;52.162;5.302;2022-09-13T10:18:31;31.25;;;15.48;;
43998;SDS011;51319;52.162;5.302;2022-09-13T10:23:46;4.57;;;1.30;;
43998;SDS011;51319;52.162;5.302;2022-09-13T10:26:18;1.92;;;1.00;;
43998;SDS011;51319;52.162;5.302;2022-09-13T10:28:53;5.38;;;1.65;;
43998;SDS011;51319;52.162;5.302;2022-09-13T10:31:26;4.88;;;1.17;;
43998;SDS011;51319;52.162;5.302;2022-09-13T10:34:02;3.35;;;1.02;;
43998;SDS011;51319;52.162;5.302;2022-09-13T10:36:41;3.63;;;0.95;;
43998;SDS011;51319;52.162;5.302;2022-09-13T10:39:18;4.00;;;0.90;;
43998;SDS011;51319;52.162;5.302;2022-09-13T10:42:00;9.52;;;1.60;;
43998;SDS011;51319;52.162;5.302;2022-09-13T10:44:45;4.63;;;0.70;;
43998;SDS011;51319;52.162;5.302;2022-09-13T10:47:19;7.38;;;1.42;;
43998;SDS011;51319;52.162;5.302;2022-09-13T10:49:50;2.88;;;0.77;;
43998;SDS011;51319;52.162;5.302;2022-09-13T10:52:25;4.95;;;0.70;;
43998;SDS011;51319;52.162;5.302;2022-09-13T10:54:54;4.22;;;0.70;;
43998;SDS011;51319;52.162;5.302;2022-09-13T10:57:36;5.90;;;0.70;;
43998;SDS011;51319;52.162;5.302;2022-09-13T11:00:05;3.15;;;0.77;;
43998;SDS011;51319;52.162;5.302;2022-09-13T11:02:42;3.08;;;1.10;;
43998;SDS011;51319;52.162;5.302;2022-09-13T11:05:14;3.33;;;1.08;;
43998;SDS011;51319;52.162;5.302;2022-09-13T11:08:01;5.93;;;1.05;;
43998;SDS011;51319;52.162;5.302;2022-09-13T11:10:42;2.00;;;0.60;;
43998;SDS011;51319;52.162;5.302;2022-09-13T11:13:37;4.93;;;0.88;;
43998;SDS011;51319;52.162;5.302;2022-09-13T11:16:20;4.00;;;0.80;;
43998;SDS011;51319;52.162;5.302;2022-09-13T11:25:21;4.18;;;0.82;;
43998;SDS011;51319;52.162;5.302;2022-09-13T11:39:13;2.60;;;0.80;;
43998;SDS011;51319;52.162;5.302;2022-09-13T11:50:28;4.10;;;0.90;;
43998;SDS011;51319;52.162;5.302;2022-09-13T11:58:10;4.80;;;0.80;;
43998;SDS011;51319;52.162;5.302;2022-09-13T12:00:46;4.43;;;0.80;;
43998;SDS011;51319;52.162;5.302;2022-09-13T12:03:23;4.10;;;1.00;;
43998;SDS011;51319;52.162;5.302;2022-09-13T12:05:59;2.70;;;0.90;;
43998;SDS011;51319;52.162;5.302;2022-09-13T12:08:35;3.58;;;0.85;;
43998;SDS011;51319;52.162;5.302;2022-09-13T12:13:51;2.92;;;0.60;;
43998;SDS011;51319;52.162;5.302;2022-09-13T12:16:22;1.95;;;0.70;;
43998;SDS011;51319;52.162;5.302;2022-09-13T12:18:56;11.98;;;0.77;;
43998;SDS011;51319;52.162;5.302;2022-09-13T12:21:28;5.10;;;0.70;;
43998;SDS011;51319;52.162;5.302;2022-09-13T12:26:29;5.03;;;1.17;;
43998;SDS011;51319;52.162;5.302;2022-09-13T12:29:06;3.10;;;0.73;;
43998;SDS011;51319;52.162;5.302;2022-09-13T12:31:40;5.10;;;0.80;;
43998;SDS011;51319;52.162;5.302;2022-09-13T12:34:06;3.33;;;0.80;;
43998;SDS011;51319;52.162;5.302;2022-09-13T12:36:46;4.93;;;0.60;;
43998;SDS011;51319;52.162;5.302;2022-09-13T12:48:19;4.63;;;0.70;;
43998;SDS011;51319;52.162;5.302;2022-09-13T12:51:00;4.70;;;0.60;;
43998;SDS011;51319;52.162;5.302;2022-09-13T13:02:20;2.78;;;0.85;;
43998;SDS011;51319;52.162;5.302;2022-09-13T13:04:52;3.75;;;0.77;;
43998;SDS011;51319;52.162;5.302;2022-09-13T13:07:22;9.13;;;0.90;;
43998;SDS011;51319;52.162;5.302;2022-09-13T13:09:52;4.03;;;0.80;;
43998;SDS011;51319;52.162;5.302;2022-09-13T13:12:29;2.67;;;0.57;;
43998;SDS011;51319;52.162;5.302;2022-09-13T13:14:56;5.68;;;1.13;;
43998;SDS011;51319;52.162;5.302;2022-09-13T13:28:50;7.75;;;0.80;;
43998;SDS011;51319;52.162;5.302;2022-09-13T13:39:09;4.20;;;0.95;;
43998;SDS011;51319;52.162;5.302;2022-09-13T13:46:45;3.35;;;0.95;;
43998;SDS011;51319;52.162;5.302;2022-09-13T13:57:48;2.33;;;0.68;;
43998;SDS011;51319;52.162;5.302;2022-09-13T14:00:22;5.43;;;0.60;;
43998;SDS011;51319;52.162;5.302;2022-09-13T14:21:40;5.13;;;0.90;;
43998;SDS011;51319;52.162;5.302;2022-09-13T14:24:17;7.20;;;0.80;;
43998;SDS011;51319;52.162;5.302;2022-09-13T14:26:50;6.15;;;1.10;;
43998;SDS011;51319;52.162;5.302;2022-09-13T14:29:19;3.67;;;0.60;;
43998;SDS011;51319;52.162;5.302;2022-09-13T14:31:47;3.85;;;0.88;;
43998;SDS011;51319;52.162;5.302;2022-09-13T14:34:20;3.28;;;0.65;;
43998;SDS011;51319;52.162;5.302;2022-09-13T14:36:51;2.35;;;0.88;;
43998;SDS011;51319;52.162;5.302;2022-09-13T14:39:19;3.92;;;0.88;;
43998;SDS011;51319;52.162;5.302;2022-09-13T14:41:46;2.17;;;0.60;;
43998;SDS011;51319;52.162;5.302;2022-09-13T14:44:20;7.70;;;1.42;;
43998;SDS011;51319;52.162;5.302;2022-09-13T14:46:59;9.63;;;1.88;;
43998;SDS011;51319;52.162;5.302;2022-09-13T14:49:32;5.18;;;1.15;;
43998;SDS011;51319;52.162;5.302;2022-09-13T14:52:07;7.32;;;1.30;;
43998;SDS011;51319;52.162;5.302;2022-09-13T14:54:40;10.30;;;0.90;;
43998;SDS011;51319;52.162;5.302;2022-09-13T14:57:18;7.47;;;1.42;;
43998;SDS011;51319;52.162;5.302;2022-09-13T14:59:51;6.55;;;0.60;;
43998;SDS011;51319;52.162;5.302;2022-09-13T15:02:22;5.65;;;0.90;;
43998;SDS011;51319;52.162;5.302;2022-09-13T15:04:51;5.43;;;1.15;;
43998;SDS011;51319;52.162;5.302;2022-09-13T15:07:27;4.93;;;0.90;;
43998;SDS011;51319;52.162;5.302;2022-09-13T15:10:04;3.78;;;0.70;;
43998;SDS011;51319;52.162;5.302;2022-09-13T15:12:33;5.15;;;0.90;;
43998;SDS011;51319;52.162;5.302;2022-09-13T15:23:16;4.07;;;0.80;;
43998;SDS011;51319;52.162;5.302;2022-09-13T15:25:50;2.42;;;0.60;;
43998;SDS011;51319;52.162;5.302;2022-09-13T15:31:38;7.43;;;0.95;;
43998;SDS011;51319;52.162;5.302;2022-09-13T15:36:43;4.63;;;1.05;;
43998;SDS011;51319;52.162;5.302;2022-09-13T15:39:14;6.68;;;1.10;;
43998;SDS011;51319;52.162;5.302;2022-09-13T15:44:18;4.20;;;1.08;;
43998;SDS011;51319;52.162;5.302;2022-09-13T15:46:48;6.45;;;0.88;;
43998;SDS011;51319;52.162;5.302;2022-09-13T15:49:18;4.70;;;1.10;;
43998;SDS011;51319;52.162;5.302;2022-09-13T15:51:47;5.10;;;1.75;;
43998;SDS011;51319;52.162;5.302;2022-09-13T15:54:19;6.93;;;0.90;;
43998;SDS011;51319;52.162;5.302;2022-09-13T15:56:47;7.32;;;1.10;;
43998;SDS011;51319;52.162;5.302;2022-09-13T15:59:17;7.57;;;1.13;;
43998;SDS011;51319;52.162;5.302;2022-09-13T16:01:46;4.75;;;1.30;;
43998;SDS011;51319;52.162;5.302;2022-09-13T16:04:14;5.93;;;0.70;;
43998;SDS011;51319;52.162;5.302;2022-09-13T16:06:40;12.55;;;2.30;;
43998;SDS011;51319;52.162;5.302;2022-09-13T16:09:17;9.40;;;1.13;;
43998;SDS011;51319;52.162;5.302;2022-09-13T16:14:15;4.75;;;0.80;;
43998;SDS011;51319;52.162;5.302;2022-09-13T16:16:42;5.82;;;0.90;;
43998;SDS011;51319;52.162;5.302;2022-09-13T16:19:17;5.97;;;1.23;;
43998;SDS011;51319;52.162;5.302;2022-09-13T16:21:45;10.50;;;1.38;;
43998;SDS011;51319;52.162;5.302;2022-09-13T16:24:12;7.60;;;1.00;;
43998;SDS011;51319;52.162;5.302;2022-09-13T16:26:38;7.55;;;1.40;;
43998;SDS011;51319;52.162;5.302;2022-09-13T16:29:05;6.40;;;0.90;;
43998;SDS011;51319;52.162;5.302;2022-09-13T16:31:32;6.80;;;1.00;;
43998;SDS011;51319;52.162;5.302;2022-09-13T16:33:58;5.05;;;1.00;;
43998;SDS011;51319;52.162;5.302;2022-09-13T16:36:25;8.45;;;0.85;;
43998;SDS011;51319;52.162;5.302;2022-09-13T16:38:53;5.53;;;0.80;;
43998;SDS011;51319;52.162;5.302;2022-09-13T16:41:20;5.43;;;0.90;;
43998;SDS011;51319;52.162;5.302;2022-09-13T16:43:47;7.40;;;1.00;;
43998;SDS011;51319;52.162;5.302;2022-09-13T16:46:13;6.07;;;0.98;;
43998;SDS011;51319;52.162;5.302;2022-09-13T16:48:40;4.10;;;0.90;;
43998;SDS011;51319;52.162;5.302;2022-09-13T16:51:09;7.13;;;1.15;;
43998;SDS011;51319;52.162;5.302;2022-09-13T16:53:37;8.27;;;1.73;;
43998;SDS011;51319;52.162;5.302;2022-09-13T16:56:13;7.45;;;2.58;;
43998;SDS011;51319;52.162;5.302;2022-09-13T16:58:41;11.10;;;1.73;;
43998;SDS011;51319;52.162;5.302;2022-09-13T17:01:12;2.92;;;1.00;;
43998;SDS011;51319;52.162;5.302;2022-09-13T17:03:40;6.80;;;1.58;;
43998;SDS011;51319;52.162;5.302;2022-09-13T17:06:07;3.10;;;0.52;;
43998;SDS011;51319;52.162;5.302;2022-09-13T17:08:37;6.47;;;1.40;;
43998;SDS011;51319;52.162;5.302;2022-09-13T17:11:06;10.18;;;1.17;;
43998;SDS011;51319;52.162;5.302;2022-09-13T17:13:34;3.72;;;0.80;;
43998;SDS011;51319;52.162;5.302;2022-09-13T17:16:01;8.80;;;1.25;;
43998;SDS011;51319;52.162;5.302;2022-09-13T17:18:28;5.32;;;1.10;;
43998;SDS011;51319;52.162;5.302;2022-09-13T17:20:54;5.38;;;1.25;;
43998;SDS011;51319;52.162;5.302;2022-09-13T17:23:20;9.95;;;1.27;;
43998;SDS011;51319;52.162;5.302;2022-09-13T17:25:47;5.95;;;1.63;;
43998;SDS011;51319;52.162;5.302;2022-09-13T17:28:14;5.13;;;1.10;;
43998;SDS011;51319;52.162;5.302;2022-09-13T17:30:41;10.23;;;1.23;;
43998;SDS011;51319;52.162;5.302;2022-09-13T17:33:09;7.57;;;0.90;;
43998;SDS011;51319;52.162;5.302;2022-09-13T17:35:36;4.78;;;0.82;;
43998;SDS011;51319;52.162;5.302;2022-09-13T17:38:02;5.53;;;1.10;;
43998;SDS011;51319;52.162;5.302;2022-09-13T17:40:29;6.75;;;1.00;;
43998;SDS011;51319;52.162;5.302;2022-09-13T17:42:57;16.77;;;1.67;;
43998;SDS011;51319;52.162;5.302;2022-09-13T17:45:24;6.25;;;1.52;;
43998;SDS011;51319;52.162;5.302;2022-09-13T17:47:51;9.30;;;1.67;;
43998;SDS011;51319;52.162;5.302;2022-09-13T17:50:18;12.00;;;1.77;;
43998;SDS011;51319;52.162;5.302;2022-09-13T17:52:44;7.30;;;1.52;;
43998;SDS011;51319;52.162;5.302;2022-09-13T17:55:11;7.15;;;1.38;;
43998;SDS011;51319;52.162;5.302;2022-09-13T17:57:37;7.78;;;1.48;;
43998;SDS011;51319;52.162;5.302;2022-09-13T18:00:05;9.45;;;1.67;;
43998;SDS011;51319;52.162;5.302;2022-09-13T18:02:37;6.72;;;1.33;;
43998;SDS011;51319;52.162;5.302;2022-09-13T18:05:03;9.15;;;1.85;;
43998;SDS011;51319;52.162;5.302;2022-09-13T18:07:33;10.57;;;2.05;;
43998;SDS011;51319;52.162;5.302;2022-09-13T18:10:00;8.65;;;1.33;;
43998;SDS011;51319;52.162;5.302;2022-09-13T18:12:26;6.43;;;1.05;;
43998;SDS011;51319;52.162;5.302;2022-09-13T18:14:52;10.38;;;1.52;;
43998;SDS011;51319;52.162;5.302;2022-09-13T18:17:18;7.07;;;1.60;;
43998;SDS011;51319;52.162;5.302;2022-09-13T18:19:45;7.40;;;1.25;;
43998;SDS011;51319;52.162;5.302;2022-09-13T18:22:12;3.90;;;1.00;;
43998;SDS011;51319;52.162;5.302;2022-09-13T18:24:38;8.32;;;1.42;;
43998;SDS011;51319;52.162;5.302;2022-09-13T18:27:06;7.00;;;1.38;;